sensor_id;sensor_type;location;lat;lon;timestamp;pressure;altitude;pressure_sealevel;temperature
68440;BMP180;55421;51.600;5.718;2024-01-30T00:00:42;163396.20;;;7.30
68440;BMP180;55421;51.600;5.718;2024-01-30T00:03:29;163389.59;;;7.30
68440;BMP180;55421;51.600;5.718;2024-01-30T00:05:58;163380.00;;;7.30
68440;BMP180;55421;51.600;5.718;2024-01-30T00:08:24;163375.59;;;7.30
68440;BMP180;55421;51.600;5.718;2024-01-30T00:10:51;163371.59;;;7.30
68440;BMP180;55421;51.600;5.718;2024-01-30T00:13:17;163376.41;;;7.30
68440;BMP180;55421;51.600;5.718;2024-01-30T00:15:46;163368.00;;;7.24
68440;BMP180;55421;51.600;5.718;2024-01-30T00:18:12;163348.00;;;7.20
68440;BMP180;55421;51.600;5.718;2024-01-30T00:20:39;163335.20;;;7.20
68440;BMP180;55421;51.600;5.718;2024-01-30T00:23:06;163325.59;;;7.20
68440;BMP180;55421;51.600;5.718;2024-01-30T00:25:32;163314.80;;;7.12
68440;BMP180;55421;51.600;5.718;2024-01-30T00:27:59;163306.00;;;7.10
68440;BMP180;55421;51.600;5.718;2024-01-30T00:30:26;163293.20;;;7.10
68440;BMP180;55421;51.600;5.718;2024-01-30T00:32:53;163292.00;;;7.10
68440;BMP180;55421;51.600;5.718;2024-01-30T00:35:20;163278.80;;;7.04
68440;BMP180;55421;51.600;5.718;2024-01-30T00:37:48;163267.80;;;7.00
68440;BMP180;55421;51.600;5.718;2024-01-30T00:40:15;163255.80;;;7.00
68440;BMP180;55421;51.600;5.718;2024-01-30T00:42:43;163235.80;;;6.94
68440;BMP180;55421;51.600;5.718;2024-01-30T00:45:15;163221.00;;;6.90
68440;BMP180;55421;51.600;5.718;2024-01-30T00:47:42;163199.41;;;6.90
68440;BMP180;55421;51.600;5.718;2024-01-30T00:50:09;163183.80;;;6.80
68440;BMP180;55421;51.600;5.718;2024-01-30T00:52:36;163178.20;;;6.80
68440;BMP180;55421;51.600;5.718;2024-01-30T00:55:03;163169.41;;;6.80
68440;BMP180;55421;51.600;5.718;2024-01-30T00:57:30;163154.20;;;6.80
68440;BMP180;55421;51.600;5.718;2024-01-30T00:59:57;163142.00;;;6.70
68440;BMP180;55421;51.600;5.718;2024-01-30T01:02:25;163145.00;;;6.70
68440;BMP180;55421;51.600;5.718;2024-01-30T01:04:51;163152.00;;;6.78
68440;BMP180;55421;51.600;5.718;2024-01-30T01:07:19;163152.00;;;6.78
68440;BMP180;55421;51.600;5.718;2024-01-30T01:09:46;163153.00;;;6.78
68440;BMP180;55421;51.600;5.718;2024-01-30T01:12:12;163150.00;;;6.70
68440;BMP180;55421;51.600;5.718;2024-01-30T01:14:39;163148.00;;;6.72
68440;BMP180;55421;51.600;5.718;2024-01-30T01:17:05;163144.00;;;6.70
68440;BMP180;55421;51.600;5.718;2024-01-30T01:19:32;163136.41;;;6.70
68440;BMP180;55421;51.600;5.718;2024-01-30T01:21:59;163131.20;;;6.70
68440;BMP180;55421;51.600;5.718;2024-01-30T01:24:26;163133.59;;;6.70
68440;BMP180;55421;51.600;5.718;2024-01-30T01:26:52;163137.59;;;6.70
68440;BMP180;55421;51.600;5.718;2024-01-30T01:29:19;163147.00;;;6.70
68440;BMP180;55421;51.600;5.718;2024-01-30T01:31:47;163145.00;;;6.70
68440;BMP180;55421;51.600;5.718;2024-01-30T01:34:13;163144.00;;;6.70
68440;BMP180;55421;51.600;5.718;2024-01-30T01:36:40;163140.00;;;6.70
68440;BMP180;55421;51.600;5.718;2024-01-30T01:39:06;163145.00;;;6.70
68440;BMP180;55421;51.600;5.718;2024-01-30T01:41:33;163155.41;;;6.80
68440;BMP180;55421;51.600;5.718;2024-01-30T01:44:00;163169.00;;;6.80
68440;BMP180;55421;51.600;5.718;2024-01-30T01:46:30;163169.80;;;6.80
68440;BMP180;55421;51.600;5.718;2024-01-30T01:49:05;163173.00;;;6.80
68440;BMP180;55421;51.600;5.718;2024-01-30T01:51:35;163178.59;;;6.80
68440;BMP180;55421;51.600;5.718;2024-01-30T01:54:04;163188.20;;;6.80
68440;BMP180;55421;51.600;5.718;2024-01-30T01:56:33;163185.41;;;6.80
68440;BMP180;55421;51.600;5.718;2024-01-30T01:59:06;163175.80;;;6.80
68440;BMP180;55421;51.600;5.718;2024-01-30T02:01:37;163173.80;;;6.80
68440;BMP180;55421;51.600;5.718;2024-01-30T02:04:04;163173.41;;;6.80
68440;BMP180;55421;51.600;5.718;2024-01-30T02:06:33;163173.41;;;6.80
68440;BMP180;55421;51.600;5.718;2024-01-30T02:09:01;163187.41;;;6.80
68440;BMP180;55421;51.600;5.718;2024-01-30T02:11:28;163192.20;;;6.90
68440;BMP180;55421;51.600;5.718;2024-01-30T02:13:55;163194.20;;;6.90
68440;BMP180;55421;51.600;5.718;2024-01-30T02:16:21;163205.41;;;6.90
68440;BMP180;55421;51.600;5.718;2024-01-30T02:18:48;163210.20;;;6.90
68440;BMP180;55421;51.600;5.718;2024-01-30T02:21:16;163207.80;;;6.90
68440;BMP180;55421;51.600;5.718;2024-01-30T02:23:46;163219.41;;;6.90
68440;BMP180;55421;51.600;5.718;2024-01-30T02:26:13;163225.00;;;6.90
68440;BMP180;55421;51.600;5.718;2024-01-30T02:28:39;163227.41;;;6.90
68440;BMP180;55421;51.600;5.718;2024-01-30T02:31:06;163237.00;;;6.96
68440;BMP180;55421;51.600;5.718;2024-01-30T02:33:32;163239.41;;;7.00
68440;BMP180;55421;51.600;5.718;2024-01-30T02:35:59;163243.00;;;7.00
68440;BMP180;55421;51.600;5.718;2024-01-30T02:38:26;163247.41;;;7.00
68440;BMP180;55421;51.600;5.718;2024-01-30T02:40:53;163248.20;;;7.00
68440;BMP180;55421;51.600;5.718;2024-01-30T02:43:19;163251.00;;;7.00
68440;BMP180;55421;51.600;5.718;2024-01-30T02:45:46;163240.20;;;7.00
68440;BMP180;55421;51.600;5.718;2024-01-30T02:48:12;163235.80;;;6.98
68440;BMP180;55421;51.600;5.718;2024-01-30T02:50:39;163235.80;;;7.00
68440;BMP180;55421;51.600;5.718;2024-01-30T02:53:05;163239.41;;;7.00
68440;BMP180;55421;51.600;5.718;2024-01-30T02:55:33;163246.59;;;7.00
68440;BMP180;55421;51.600;5.718;2024-01-30T02:57:59;163248.59;;;7.00
68440;BMP180;55421;51.600;5.718;2024-01-30T03:00:26;163247.00;;;7.00
68440;BMP180;55421;51.600;5.718;2024-01-30T03:02:52;163241.80;;;7.00
68440;BMP180;55421;51.600;5.718;2024-01-30T03:05:19;163242.59;;;7.00
68440;BMP180;55421;51.600;5.718;2024-01-30T03:07:45;163247.41;;;7.00
68440;BMP180;55421;51.600;5.718;2024-01-30T03:10:12;163248.59;;;7.00
68440;BMP180;55421;51.600;5.718;2024-01-30T03:12:38;163254.59;;;7.00
68440;BMP180;55421;51.600;5.718;2024-01-30T03:15:05;163258.20;;;7.00
68440;BMP180;55421;51.600;5.718;2024-01-30T03:17:32;163265.00;;;7.00
68440;BMP180;55421;51.600;5.718;2024-01-30T03:19:58;163273.41;;;7.00
68440;BMP180;55421;51.600;5.718;2024-01-30T03:22:25;163266.20;;;7.00
68440;BMP180;55421;51.600;5.718;2024-01-30T03:24:51;163267.00;;;7.00
68440;BMP180;55421;51.600;5.718;2024-01-30T03:27:18;163260.59;;;7.00
68440;BMP180;55421;51.600;5.718;2024-01-30T03:29:45;163244.20;;;7.00
68440;BMP180;55421;51.600;5.718;2024-01-30T03:32:11;163235.80;;;7.00
68440;BMP180;55421;51.600;5.718;2024-01-30T03:34:37;163228.59;;;6.90
68440;BMP180;55421;51.600;5.718;2024-01-30T03:37:04;163225.00;;;6.90
68440;BMP180;55421;51.600;5.718;2024-01-30T03:39:31;163222.20;;;6.90
68440;BMP180;55421;51.600;5.718;2024-01-30T03:41:57;163220.59;;;6.90
68440;BMP180;55421;51.600;5.718;2024-01-30T03:44:24;163219.80;;;6.90
68440;BMP180;55421;51.600;5.718;2024-01-30T03:46:50;163217.41;;;6.90
68440;BMP180;55421;51.600;5.718;2024-01-30T03:49:17;163213.80;;;6.90
68440;BMP180;55421;51.600;5.718;2024-01-30T03:51:43;163215.00;;;6.90
68440;BMP180;55421;51.600;5.718;2024-01-30T03:54:11;163217.41;;;6.90
68440;BMP180;55421;51.600;5.718;2024-01-30T03:56:37;163218.59;;;6.90
68440;BMP180;55421;51.600;5.718;2024-01-30T03:59:04;163216.20;;;6.90
68440;BMP180;55421;51.600;5.718;2024-01-30T04:01:30;163211.41;;;6.90
68440;BMP180;55421;51.600;5.718;2024-01-30T04:03:57;163213.80;;;6.90
68440;BMP180;55421;51.600;5.718;2024-01-30T04:06:23;163206.59;;;6.90
68440;BMP180;55421;51.600;5.718;2024-01-30T04:08:50;163206.59;;;6.90
68440;BMP180;55421;51.600;5.718;2024-01-30T04:11:18;163217.41;;;6.90
68440;BMP180;55421;51.600;5.718;2024-01-30T04:13:46;163225.41;;;6.90
68440;BMP180;55421;51.600;5.718;2024-01-30T04:16:22;163228.20;;;6.90
68440;BMP180;55421;51.600;5.718;2024-01-30T04:18:49;163237.00;;;6.96
68440;BMP180;55421;51.600;5.718;2024-01-30T04:21:16;163239.41;;;7.00
68440;BMP180;55421;51.600;5.718;2024-01-30T04:23:42;163240.59;;;7.00
68440;BMP180;55421;51.600;5.718;2024-01-30T04:26:09;163247.41;;;7.00
68440;BMP180;55421;51.600;5.718;2024-01-30T04:28:35;163253.00;;;7.00
68440;BMP180;55421;51.600;5.718;2024-01-30T04:31:02;163257.41;;;7.00
68440;BMP180;55421;51.600;5.718;2024-01-30T04:33:28;163263.80;;;7.00
68440;BMP180;55421;51.600;5.718;2024-01-30T04:35:55;163263.00;;;7.00
68440;BMP180;55421;51.600;5.718;2024-01-30T04:38:21;163276.59;;;7.04
68440;BMP180;55421;51.600;5.718;2024-01-30T04:40:48;163280.59;;;7.08
68440;BMP180;55421;51.600;5.718;2024-01-30T04:43:14;163290.00;;;7.10
68440;BMP180;55421;51.600;5.718;2024-01-30T04:45:42;163295.59;;;7.10
68440;BMP180;55421;51.600;5.718;2024-01-30T04:48:08;163298.00;;;7.10
68440;BMP180;55421;51.600;5.718;2024-01-30T04:50:35;163294.41;;;7.10
68440;BMP180;55421;51.600;5.718;2024-01-30T04:53:01;163296.80;;;7.10
68440;BMP180;55421;51.600;5.718;2024-01-30T04:55:28;163301.59;;;7.10
68440;BMP180;55421;51.600;5.718;2024-01-30T04:57:54;163316.41;;;7.10
68440;BMP180;55421;51.600;5.718;2024-01-30T05:00:21;163319.20;;;7.12
68440;BMP180;55421;51.600;5.718;2024-01-30T05:02:48;163328.41;;;7.20
68440;BMP180;55421;51.600;5.718;2024-01-30T05:05:14;163333.59;;;7.20
68440;BMP180;55421;51.600;5.718;2024-01-30T05:07:41;163349.20;;;7.20
68440;BMP180;55421;51.600;5.718;2024-01-30T05:10:08;163352.41;;;7.20
68440;BMP180;55421;51.600;5.718;2024-01-30T05:12:35;163351.20;;;7.20
68440;BMP180;55421;51.600;5.718;2024-01-30T05:15:01;163348.00;;;7.20
68440;BMP180;55421;51.600;5.718;2024-01-30T05:17:28;163354.41;;;7.20
68440;BMP180;55421;51.600;5.718;2024-01-30T05:19:54;163358.41;;;7.20
68440;BMP180;55421;51.600;5.718;2024-01-30T05:22:21;163364.41;;;7.22
68440;BMP180;55421;51.600;5.718;2024-01-30T05:24:47;163376.80;;;7.30
68440;BMP180;55421;51.600;5.718;2024-01-30T05:27:14;163383.59;;;7.30
68440;BMP180;55421;51.600;5.718;2024-01-30T05:29:41;163396.59;;;7.30
68440;BMP180;55421;51.600;5.718;2024-01-30T05:32:07;163408.20;;;7.30
68440;BMP180;55421;51.600;5.718;2024-01-30T05:34:37;163413.00;;;7.40
68440;BMP180;55421;51.600;5.718;2024-01-30T05:37:03;163424.59;;;7.40
68440;BMP180;55421;51.600;5.718;2024-01-30T05:39:30;163429.41;;;7.40
68440;BMP180;55421;51.600;5.718;2024-01-30T05:41:59;163436.20;;;7.40
68440;BMP180;55421;51.600;5.718;2024-01-30T05:44:26;163441.00;;;7.40
68440;BMP180;55421;51.600;5.718;2024-01-30T05:46:53;163444.59;;;7.42
68440;BMP180;55421;51.600;5.718;2024-01-30T05:49:20;163457.00;;;7.50
68440;BMP180;55421;51.600;5.718;2024-01-30T05:51:46;163465.41;;;7.50
68440;BMP180;55421;51.600;5.718;2024-01-30T05:54:13;163472.59;;;7.50
68440;BMP180;55421;51.600;5.718;2024-01-30T05:56:39;163479.80;;;7.50
68440;BMP180;55421;51.600;5.718;2024-01-30T05:59:05;163497.80;;;7.58
68440;BMP180;55421;51.600;5.718;2024-01-30T06:01:32;163510.20;;;7.60
68440;BMP180;55421;51.600;5.718;2024-01-30T06:04:00;163521.00;;;7.60
68440;BMP180;55421;51.600;5.718;2024-01-30T06:06:27;163530.80;;;7.60
68440;BMP180;55421;51.600;5.718;2024-01-30T06:08:54;163532.00;;;7.60
68440;BMP180;55421;51.600;5.718;2024-01-30T06:11:22;163526.59;;;7.60
68440;BMP180;55421;51.600;5.718;2024-01-30T06:13:48;163537.20;;;7.64
68440;BMP180;55421;51.600;5.718;2024-01-30T06:16:15;163546.80;;;7.70
68440;BMP180;55421;51.600;5.718;2024-01-30T06:18:41;163547.59;;;7.70
68440;BMP180;55421;51.600;5.718;2024-01-30T06:21:08;163553.20;;;7.70
68440;BMP180;55421;51.600;5.718;2024-01-30T06:23:34;163544.80;;;7.70
68440;BMP180;55421;51.600;5.718;2024-01-30T06:26:01;163543.20;;;7.70
68440;BMP180;55421;51.600;5.718;2024-01-30T06:28:27;163543.59;;;7.70
68440;BMP180;55421;51.600;5.718;2024-01-30T06:30:54;163543.59;;;7.70
68440;BMP180;55421;51.600;5.718;2024-01-30T06:33:20;163541.59;;;7.70
68440;BMP180;55421;51.600;5.718;2024-01-30T06:35:47;163537.00;;;7.68
68440;BMP180;55421;51.600;5.718;2024-01-30T06:38:13;163536.20;;;7.66
68440;BMP180;55421;51.600;5.718;2024-01-30T06:40:42;163545.20;;;7.70
68440;BMP180;55421;51.600;5.718;2024-01-30T06:43:08;163551.59;;;7.70
68440;BMP180;55421;51.600;5.718;2024-01-30T06:45:35;163556.80;;;7.70
68440;BMP180;55421;51.600;5.718;2024-01-30T06:48:02;163558.41;;;7.70
68440;BMP180;55421;51.600;5.718;2024-01-30T06:50:29;163559.20;;;7.70
68440;BMP180;55421;51.600;5.718;2024-01-30T06:52:55;163559.20;;;7.70
68440;BMP180;55421;51.600;5.718;2024-01-30T06:55:22;163566.41;;;7.70
68440;BMP180;55421;51.600;5.718;2024-01-30T06:57:48;163561.59;;;7.70
68440;BMP180;55421;51.600;5.718;2024-01-30T07:00:16;163561.59;;;7.70
68440;BMP180;55421;51.600;5.718;2024-01-30T07:02:42;163564.00;;;7.70
68440;BMP180;55421;51.600;5.718;2024-01-30T07:05:09;163574.80;;;7.70
68440;BMP180;55421;51.600;5.718;2024-01-30T07:07:36;163576.00;;;7.76
68440;BMP180;55421;51.600;5.718;2024-01-30T07:10:03;163576.00;;;7.76
68440;BMP180;55421;51.600;5.718;2024-01-30T07:12:31;163572.41;;;7.74
68440;BMP180;55421;51.600;5.718;2024-01-30T07:14:57;163572.41;;;7.70
68440;BMP180;55421;51.600;5.718;2024-01-30T07:17:25;163572.41;;;7.72
68440;BMP180;55421;51.600;5.718;2024-01-30T07:19:52;163578.41;;;7.72
68440;BMP180;55421;51.600;5.718;2024-01-30T07:22:18;163576.00;;;7.74
68440;BMP180;55421;51.600;5.718;2024-01-30T07:24:45;163572.41;;;7.74
68440;BMP180;55421;51.600;5.718;2024-01-30T07:27:14;163582.41;;;7.80
68440;BMP180;55421;51.600;5.718;2024-01-30T07:29:41;163584.00;;;7.80
68440;BMP180;55421;51.600;5.718;2024-01-30T07:32:09;163591.59;;;7.80
68440;BMP180;55421;51.600;5.718;2024-01-30T07:34:35;163587.20;;;7.80
68440;BMP180;55421;51.600;5.718;2024-01-30T07:37:02;163584.00;;;7.80
68440;BMP180;55421;51.600;5.718;2024-01-30T07:39:29;163575.59;;;7.72
68440;BMP180;55421;51.600;5.718;2024-01-30T07:41:55;163559.20;;;7.70
68440;BMP180;55421;51.600;5.718;2024-01-30T07:44:22;163551.59;;;7.70
68440;BMP180;55421;51.600;5.718;2024-01-30T07:46:49;163570.00;;;7.70
68440;BMP180;55421;51.600;5.718;2024-01-30T07:49:16;163579.20;;;7.78
68440;BMP180;55421;51.600;5.718;2024-01-30T07:51:43;163584.00;;;7.80
68440;BMP180;55421;51.600;5.718;2024-01-30T07:54:14;163590.80;;;7.80
68440;BMP180;55421;51.600;5.718;2024-01-30T07:56:41;163609.20;;;7.80
68440;BMP180;55421;51.600;5.718;2024-01-30T07:59:11;163628.80;;;7.90
68440;BMP180;55421;51.600;5.718;2024-01-30T08:01:38;163648.59;;;7.90
68440;BMP180;55421;51.600;5.718;2024-01-30T08:04:04;163665.00;;;7.90
68440;BMP180;55421;51.600;5.718;2024-01-30T08:06:31;163680.20;;;8.00
68440;BMP180;55421;51.600;5.718;2024-01-30T08:08:57;163699.41;;;8.00
68440;BMP180;55421;51.600;5.718;2024-01-30T08:11:25;163703.80;;;8.02
68440;BMP180;55421;51.600;5.718;2024-01-30T08:13:53;163728.20;;;8.10
68440;BMP180;55421;51.600;5.718;2024-01-30T08:16:20;163749.41;;;8.12
68440;BMP180;55421;51.600;5.718;2024-01-30T08:18:46;163776.20;;;8.20
68440;BMP180;55421;51.600;5.718;2024-01-30T08:21:13;163806.80;;;8.30
68440;BMP180;55421;51.600;5.718;2024-01-30T08:23:40;163828.00;;;8.30
68440;BMP180;55421;51.600;5.718;2024-01-30T08:26:06;163841.20;;;8.38
68440;BMP180;55421;51.600;5.718;2024-01-30T08:28:33;163858.00;;;8.40
68440;BMP180;55421;51.600;5.718;2024-01-30T08:30:59;163876.59;;;8.40
68440;BMP180;55421;51.600;5.718;2024-01-30T08:33:29;163885.00;;;8.50
68440;BMP180;55421;51.600;5.718;2024-01-30T08:35:56;163894.59;;;8.50
68440;BMP180;55421;51.600;5.718;2024-01-30T08:38:22;163905.41;;;8.50
68440;BMP180;55421;51.600;5.718;2024-01-30T08:40:49;163924.20;;;8.50
68440;BMP180;55421;51.600;5.718;2024-01-30T08:43:15;163930.20;;;8.60
68440;BMP180;55421;51.600;5.718;2024-01-30T08:45:42;163951.00;;;8.60
68440;BMP180;55421;51.600;5.718;2024-01-30T08:48:09;163959.41;;;8.60
68440;BMP180;55421;51.600;5.718;2024-01-30T08:50:35;163967.80;;;8.60
68440;BMP180;55421;51.600;5.718;2024-01-30T08:53:02;163976.20;;;8.70
68440;BMP180;55421;51.600;5.718;2024-01-30T08:55:29;163977.41;;;8.70
68440;BMP180;55421;51.600;5.718;2024-01-30T08:57:56;163995.41;;;8.70
68440;BMP180;55421;51.600;5.718;2024-01-30T09:00:23;164007.00;;;8.70
68440;BMP180;55421;51.600;5.718;2024-01-30T09:02:49;164020.00;;;8.80
68440;BMP180;55421;51.600;5.718;2024-01-30T09:05:16;164036.00;;;8.80
68440;BMP180;55421;51.600;5.718;2024-01-30T09:07:42;164056.41;;;8.86
68440;BMP180;55421;51.600;5.718;2024-01-30T09:10:09;164071.20;;;8.90
68440;BMP180;55421;51.600;5.718;2024-01-30T09:12:35;164093.59;;;8.94
68440;BMP180;55421;51.600;5.718;2024-01-30T09:15:02;164105.59;;;9.00
68440;BMP180;55421;51.600;5.718;2024-01-30T09:17:29;164117.59;;;9.00
68440;BMP180;55421;51.600;5.718;2024-01-30T09:19:56;164120.00;;;9.00
68440;BMP180;55421;51.600;5.718;2024-01-30T09:22:22;164128.80;;;9.00
68440;BMP180;55421;51.600;5.718;2024-01-30T09:24:49;164128.00;;;9.00
68440;BMP180;55421;51.600;5.718;2024-01-30T09:27:15;164130.41;;;9.00
68440;BMP180;55421;51.600;5.718;2024-01-30T09:29:42;164126.41;;;9.00
68440;BMP180;55421;51.600;5.718;2024-01-30T09:32:08;164133.80;;;9.00
68440;BMP180;55421;51.600;5.718;2024-01-30T09:34:35;164139.80;;;9.02
68440;BMP180;55421;51.600;5.718;2024-01-30T09:37:02;164142.59;;;9.10
68440;BMP180;55421;51.600;5.718;2024-01-30T09:39:28;164147.00;;;9.10
68440;BMP180;55421;51.600;5.718;2024-01-30T09:42:18;164163.80;;;9.10
68440;BMP180;55421;51.600;5.718;2024-01-30T09:44:51;164179.80;;;9.16
68440;BMP180;55421;51.600;5.718;2024-01-30T09:47:18;164192.59;;;9.20
68440;BMP180;55421;51.600;5.718;2024-01-30T09:49:45;164210.20;;;9.20
68440;BMP180;55421;51.600;5.718;2024-01-30T09:52:12;164220.20;;;9.20
68440;BMP180;55421;51.600;5.718;2024-01-30T09:54:41;164234.59;;;9.28
68440;BMP180;55421;51.600;5.718;2024-01-30T09:57:08;164251.41;;;9.30
68440;BMP180;55421;51.600;5.718;2024-01-30T09:59:35;164257.00;;;9.30
68440;BMP180;55421;51.600;5.718;2024-01-30T10:02:02;164272.41;;;9.36
68440;BMP180;55421;51.600;5.718;2024-01-30T10:04:30;164284.80;;;9.40
68440;BMP180;55421;51.600;5.718;2024-01-30T10:06:57;164304.41;;;9.40
68440;BMP180;55421;51.600;5.718;2024-01-30T10:09:25;164325.20;;;9.50
68440;BMP180;55421;51.600;5.718;2024-01-30T10:11:51;164345.20;;;9.50
68440;BMP180;55421;51.600;5.718;2024-01-30T10:14:18;164377.80;;;9.60
68440;BMP180;55421;51.600;5.718;2024-01-30T10:16:46;164405.00;;;9.70
68440;BMP180;55421;51.600;5.718;2024-01-30T10:19:13;164422.20;;;9.70
68440;BMP180;55421;51.600;5.718;2024-01-30T10:21:40;164442.59;;;9.76
68440;BMP180;55421;51.600;5.718;2024-01-30T10:24:07;164457.41;;;9.80
68440;BMP180;55421;51.600;5.718;2024-01-30T10:26:33;164472.59;;;9.80
68440;BMP180;55421;51.600;5.718;2024-01-30T10:29:00;164495.00;;;9.90
68440;BMP180;55421;51.600;5.718;2024-01-30T10:31:27;164501.80;;;9.90
68440;BMP180;55421;51.600;5.718;2024-01-30T10:33:53;164505.80;;;9.90
68440;BMP180;55421;51.600;5.718;2024-01-30T10:36:28;164516.80;;;9.90
68440;BMP180;55421;51.600;5.718;2024-01-30T10:38:59;164525.20;;;9.90
68440;BMP180;55421;51.600;5.718;2024-01-30T10:41:27;164530.00;;;9.94
68440;BMP180;55421;51.600;5.718;2024-01-30T10:44:09;164544.41;;;10.00
68440;BMP180;55421;51.600;5.718;2024-01-30T10:46:42;164544.41;;;10.00
68440;BMP180;55421;51.600;5.718;2024-01-30T10:49:13;164556.00;;;10.00
68440;BMP180;55421;51.600;5.718;2024-01-30T10:51:42;164564.41;;;10.00
68440;BMP180;55421;51.600;5.718;2024-01-30T10:54:09;164584.80;;;10.10
68440;BMP180;55421;51.600;5.718;2024-01-30T10:56:36;164617.59;;;10.14
68440;BMP180;55421;51.600;5.718;2024-01-30T10:59:04;164646.20;;;10.20
68440;BMP180;55421;51.600;5.718;2024-01-30T11:01:31;164663.41;;;10.30
68440;BMP180;55421;51.600;5.718;2024-01-30T11:03:58;164677.80;;;10.30
68440;BMP180;55421;51.600;5.718;2024-01-30T11:06:25;164686.20;;;10.30
68440;BMP180;55421;51.600;5.718;2024-01-30T11:09:02;164699.41;;;10.30
68440;BMP180;55421;51.600;5.718;2024-01-30T11:11:30;164703.80;;;10.38
68440;BMP180;55421;51.600;5.718;2024-01-30T11:14:01;164712.20;;;10.40
68440;BMP180;55421;51.600;5.718;2024-01-30T11:16:32;164727.41;;;10.40
68440;BMP180;55421;51.600;5.718;2024-01-30T11:19:00;164750.59;;;10.48
68440;BMP180;55421;51.600;5.718;2024-01-30T11:21:28;164781.20;;;10.50
68440;BMP180;55421;51.600;5.718;2024-01-30T11:23:55;164811.59;;;10.60
68440;BMP180;55421;51.600;5.718;2024-01-30T11:26:30;164840.00;;;10.68
68440;BMP180;55421;51.600;5.718;2024-01-30T11:28:57;164864.80;;;10.70
68440;BMP180;55421;51.600;5.718;2024-01-30T11:31:23;164866.80;;;10.72
68440;BMP180;55421;51.600;5.718;2024-01-30T11:33:52;164861.20;;;10.70
68440;BMP180;55421;51.600;5.718;2024-01-30T11:36:26;164851.59;;;10.70
68440;BMP180;55421;51.600;5.718;2024-01-30T11:38:54;164839.20;;;10.70
68440;BMP180;55421;51.600;5.718;2024-01-30T11:41:22;164830.41;;;10.60
68440;BMP180;55421;51.600;5.718;2024-01-30T11:43:55;164823.59;;;10.60
68440;BMP180;55421;51.600;5.718;2024-01-30T11:46:25;164829.59;;;10.60
68440;BMP180;55421;51.600;5.718;2024-01-30T11:48:52;164849.20;;;10.70
68440;BMP180;55421;51.600;5.718;2024-01-30T11:51:18;164883.41;;;10.80
68440;BMP180;55421;51.600;5.718;2024-01-30T11:53:49;164917.41;;;10.88
68440;BMP180;55421;51.600;5.718;2024-01-30T11:56:16;164943.00;;;10.90
68440;BMP180;55421;51.600;5.718;2024-01-30T11:58:43;164968.20;;;11.00
68440;BMP180;55421;51.600;5.718;2024-01-30T12:01:11;164979.41;;;11.00
68440;BMP180;55421;51.600;5.718;2024-01-30T12:03:38;164993.41;;;11.00
68440;BMP180;55421;51.600;5.718;2024-01-30T12:06:04;164991.41;;;11.00
68440;BMP180;55421;51.600;5.718;2024-01-30T12:08:31;164986.59;;;11.00
68440;BMP180;55421;51.600;5.718;2024-01-30T12:10:58;164981.80;;;11.00
68440;BMP180;55421;51.600;5.718;2024-01-30T12:13:26;164979.41;;;11.00
68440;BMP180;55421;51.600;5.718;2024-01-30T12:15:53;164975.80;;;11.00
68440;BMP180;55421;51.600;5.718;2024-01-30T12:18:19;164976.59;;;11.00
68440;BMP180;55421;51.600;5.718;2024-01-30T12:20:57;164980.59;;;11.00
68440;BMP180;55421;51.600;5.718;2024-01-30T12:23:26;164984.20;;;11.00
68440;BMP180;55421;51.600;5.718;2024-01-30T12:25:54;164980.59;;;11.00
68440;BMP180;55421;51.600;5.718;2024-01-30T12:28:20;164985.41;;;11.00
68440;BMP180;55421;51.600;5.718;2024-01-30T12:30:47;164981.80;;;11.00
68440;BMP180;55421;51.600;5.718;2024-01-30T12:33:17;164972.59;;;11.00
68440;BMP180;55421;51.600;5.718;2024-01-30T12:35:48;164953.41;;;10.90
68440;BMP180;55421;51.600;5.718;2024-01-30T12:38:14;164946.59;;;10.90
68440;BMP180;55421;51.600;5.718;2024-01-30T12:40:41;164937.41;;;10.90
68440;BMP180;55421;51.600;5.718;2024-01-30T12:43:08;164923.00;;;10.90
68440;BMP180;55421;51.600;5.718;2024-01-30T12:45:36;164901.00;;;10.80
68440;BMP180;55421;51.600;5.718;2024-01-30T12:48:03;164873.41;;;10.78
68440;BMP180;55421;51.600;5.718;2024-01-30T12:50:29;164857.59;;;10.70
68440;BMP180;55421;51.600;5.718;2024-01-30T12:52:56;164850.80;;;10.70
68440;BMP180;55421;51.600;5.718;2024-01-30T12:55:24;164843.59;;;10.70
68440;BMP180;55421;51.600;5.718;2024-01-30T12:57:51;164826.00;;;10.60
68440;BMP180;55421;51.600;5.718;2024-01-30T13:00:17;164811.59;;;10.60
68440;BMP180;55421;51.600;5.718;2024-01-30T13:02:44;164798.80;;;10.60
68440;BMP180;55421;51.600;5.718;2024-01-30T13:05:11;164774.00;;;10.50
68440;BMP180;55421;51.600;5.718;2024-01-30T13:07:38;164802.41;;;10.60
68440;BMP180;55421;51.600;5.718;2024-01-30T13:10:05;164837.59;;;10.68
68440;BMP180;55421;51.600;5.718;2024-01-30T13:12:32;164901.00;;;10.80
68440;BMP180;55421;51.600;5.718;2024-01-30T13:15:00;164939.41;;;10.90
68440;BMP180;55421;51.600;5.718;2024-01-30T13:17:28;164979.41;;;11.00
68440;BMP180;55421;51.600;5.718;2024-01-30T13:19:54;165025.59;;;11.10
68440;BMP180;55421;51.600;5.718;2024-01-30T13:22:21;164976.41;;;11.10
68440;BMP180;55421;51.600;5.718;2024-01-30T13:24:48;164377.41;;;11.00
68440;BMP180;55421;51.600;5.718;2024-01-30T13:27:14;164164.59;;;10.90
68440;BMP180;55421;51.600;5.718;2024-01-30T13:29:41;163525.41;;;10.90
68440;BMP180;55421;51.600;5.718;2024-01-30T13:32:07;163127.00;;;10.80
68440;BMP180;55421;51.600;5.718;2024-01-30T13:34:34;160975.20;;;10.70
68440;BMP180;55421;51.600;5.718;2024-01-30T13:37:00;159690.59;;;10.70
68440;BMP180;55421;51.600;5.718;2024-01-30T13:39:27;159287.59;;;10.60
68440;BMP180;55421;51.600;5.718;2024-01-30T13:41:54;157519.59;;;10.50
68440;BMP180;55421;51.600;5.718;2024-01-30T13:44:20;157485.00;;;10.50
68440;BMP180;55421;51.600;5.718;2024-01-30T13:46:47;157814.20;;;10.48
68440;BMP180;55421;51.600;5.718;2024-01-30T13:49:15;159009.00;;;10.40
68440;BMP180;55421;51.600;5.718;2024-01-30T13:51:42;160193.20;;;10.40
68440;BMP180;55421;51.600;5.718;2024-01-30T13:54:08;160286.59;;;10.40
68440;BMP180;55421;51.600;5.718;2024-01-30T13:56:35;159288.00;;;10.40
68440;BMP180;55421;51.600;5.718;2024-01-30T13:59:02;159589.20;;;10.40
68440;BMP180;55421;51.600;5.718;2024-01-30T14:01:32;159609.59;;;10.30
68440;BMP180;55421;51.600;5.718;2024-01-30T14:03:58;159569.00;;;10.30
68440;BMP180;55421;51.600;5.718;2024-01-30T14:06:25;159436.80;;;10.30